Hub


Voltar

 INFORMAÇÕES METEOROLÓGICAS

METAR FOR LFLS


ADDS - METARS form results

(0317 UTC 20 April 2019)
Data provider http://aviationweather.gov/metar/data/
 
METAR text: LFLS 200300Z AUTO 06004KT 040V100 CAVOK 09/03 Q1025 NOSIG
Conditions at: LFLS (GRENOBLE/ST. GEO, FR) observed 0300 UTC 20 April 2019
Temperature: 9.0°C (48°F)
Dewpoint: 3.0°C (37°F) [RH = 66%]
Pressure (altimeter): 30.27 inches Hg (1025.0 mb)
Winds: from the ENE (60 degrees) at 5 MPH (4 knots; 2.1 m/s)
Visibility: 6 or more miles (10+ km)
Ceiling: ceiling and visibility are OK
Clouds: unknown
Weather: no significant weather observed at this time

METAR text: LFLS 200230Z AUTO 04005KT CAVOK 09/03 Q1025 NOSIG
Conditions at: LFLS (GRENOBLE/ST. GEO, FR) observed 0230 UTC 20 April 2019
Temperature: 9.0°C (48°F)
Dewpoint: 3.0°C (37°F) [RH = 66%]
Pressure (altimeter): 30.27 inches Hg (1025.0 mb)
Winds: from the NE (40 degrees) at 6 MPH (5 knots; 2.6 m/s)
Visibility: 6 or more miles (10+ km)
Ceiling: ceiling and visibility are OK
Clouds: unknown
Weather: no significant weather observed at this time

Forecast for: LFLS (GRENOBLE/ST. GEO, FR)
Text: TAF LFLS 200200Z 2003/2103 08008KT CAVOK
Forecast period: 0300 UTC 20 April 2019 to 0300 UTC 21 April 2019
Forecast type: FROM: standard forecast or significant change
Winds: from the E (80 degrees) at 9 MPH (8 knots; 4.1 m/s)
Visibility: 6 or more miles 10+ km)
Ceiling: unknown
Clouds: missing
Weather: NSW  (no significant weather)
Text: PROB30 2014/2021 FEW065TCU
Forecast period: 1400 to 2100 UTC 20 April 2019
Forecast type: PROBABLE: 30 percent likelihood of the following during this time
Visibility: missing
Ceiling: at least 12,000 feet AGL
Clouds: few clouds at 6500 feet AGL
Weather: no significant weather forecast for this period


 MAPA DO AEROPORTO


 INFORMAÇÕES DA PISTA

Pista 09 Tamanho da pista 10007 ft Largura da pista 148 ft
Elevação da pista 1224 ft Ranhura da pista 0 ft Proa da pista 90
Pista 27 Tamanho da pista 10007 ft Largura da pista 148 ft
Elevação da pista 1302 ft Ranhura da pista 0 ft Proa da pista 270

 FREQUÊNCIAS DO AEROPORTO

Tipo APP Nome GRENOBLE A Frequência 119.3 MHZ
Tipo ATIS Nome GRENOBLE A Frequência 125.725 MHZ
Tipo GND Nome GRENOBLE G Frequência 121.925 MHZ
Tipo TWR Nome GRENOBLE T Frequência 119.3 MHZ

 AUXÍLIOS DE NAVEGAÇÃO PRÓXIMOS AO AEROPORTO